Time;durP1;ratioP1;P1;durP2;ratioP2;P2;SDS_P1;SDS_P2;PMS_P1;PMS_P2;Temp;Humidity;BMP_temperature;BMP_pressure;BME280_temperature;BME280_humidity;BME280_pressure;Samples;Min_cycle;Max_cycle;Signal;HPM_P1;HPM_P2
2023/11/15 00:01:00;;;;;;;18.38;2.72;;;9.60;99.90;;;;;;5073784;28;20044;-82
2023/11/15 00:03:27;;;;;;;16.50;2.63;;;9.60;99.90;;;;;;5069927;28;20108;-81
2023/11/15 00:05:54;;;;;;;11.80;2.80;;;9.60;99.90;;;;;;5074820;28;20049;-80
2023/11/15 00:08:21;;;;;;;24.27;2.60;;;9.60;99.90;;;;;;5072791;28;20073;-81
2023/11/15 00:10:48;;;;;;;16.77;4.30;;;9.60;99.90;;;;;;5054384;28;20071;-80
2023/11/15 00:13:15;;;;;;;16.17;2.40;;;9.60;99.90;;;;;;5072585;28;20070;-82
2023/11/15 00:15:41;;;;;;;15.55;3.38;;;9.60;99.90;;;;;;5072087;28;20052;-83
2023/11/15 00:18:08;;;;;;;16.63;3.17;;;9.60;99.90;;;;;;5072409;28;20053;-82
2023/11/15 00:20:35;;;;;;;20.13;2.90;;;9.60;99.90;;;;;;5072003;28;20078;-80
2023/11/15 00:23:02;;;;;;;18.58;2.92;;;9.60;99.90;;;;;;5067069;28;20044;-82
2023/11/15 00:25:30;;;;;;;17.63;2.90;;;9.60;99.90;;;;;;5051993;28;20125;-80
2023/11/15 00:27:56;;;;;;;14.90;2.40;;;9.60;99.90;;;;;;5069927;28;20045;-81
2023/11/15 00:30:23;;;;;;;13.63;2.33;;;9.60;99.90;;;;;;5069939;28;20071;-81
2023/11/15 00:32:50;;;;;;;13.65;2.42;;;9.60;99.90;;;;;;5069555;28;20048;-81
2023/11/15 00:35:17;;;;;;;9.88;2.33;;;9.50;99.90;;;;;;5068802;28;20048;-83
2023/11/15 00:37:45;;;;;;;25.13;6.45;;;9.60;99.90;;;;;;5068489;28;20075;-79
2023/11/15 00:40:15;;;;;;;10.68;2.75;;;9.60;99.90;;;;;;5050228;28;20491;-81
2023/11/15 00:42:43;;;;;;;11.57;2.85;;;9.60;99.90;;;;;;5039405;28;20037;-82
2023/11/15 00:45:11;;;;;;;23.48;2.67;;;9.60;99.90;;;;;;5053728;28;20122;-81
2023/11/15 00:47:39;;;;;;;11.57;2.05;;;9.60;99.90;;;;;;5068073;28;20503;-82
2023/11/15 00:50:07;;;;;;;11.43;2.40;;;9.60;99.90;;;;;;5045419;28;20063;-80
2023/11/15 00:52:34;;;;;;;12.32;2.50;;;9.60;99.90;;;;;;5069867;28;20083;-81
2023/11/15 00:55:00;;;;;;;17.45;3.72;;;9.60;99.90;;;;;;5069270;28;20128;-81
2023/11/15 00:57:27;;;;;;;12.23;3.15;;;9.60;99.90;;;;;;5049251;28;20049;-82
2023/11/15 00:59:54;;;;;;;13.52;3.67;;;9.50;99.90;;;;;;5065532;28;20098;-81
2023/11/15 01:02:22;;;;;;;13.15;3.78;;;9.50;99.90;;;;;;5067838;28;20045;-80
2023/11/15 01:04:50;;;;;;;21.95;2.40;;;9.50;99.90;;;;;;5078174;28;20571;-81
2023/11/15 01:07:17;;;;;;;23.60;3.22;;;9.50;99.90;;;;;;5080021;28;20211;-81
2023/11/15 01:09:44;;;;;;;20.08;4.05;;;9.50;99.90;;;;;;5038805;28;20060;-81
2023/11/15 01:12:11;;;;;;;12.63;2.30;;;9.50;99.90;;;;;;5070440;28;20114;-82
2023/11/15 01:14:38;;;;;;;19.02;3.03;;;9.50;99.90;;;;;;5070168;28;20254;-83
2023/11/15 01:17:05;;;;;;;23.45;3.92;;;9.50;99.90;;;;;;5068378;28;20044;-82
2023/11/15 01:19:32;;;;;;;13.20;2.58;;;9.50;99.90;;;;;;5070111;28;20048;-80
2023/11/15 01:21:59;;;;;;;19.48;2.38;;;9.50;99.90;;;;;;5042759;28;20044;-81
2023/11/15 01:24:26;;;;;;;11.13;2.50;;;9.50;99.90;;;;;;5051809;28;20048;-83
2023/11/15 01:26:53;;;;;;;13.10;3.35;;;9.50;99.90;;;;;;5050489;28;20040;-80
2023/11/15 01:29:20;;;;;;;17.92;2.25;;;9.60;99.90;;;;;;5052163;28;20044;-81
2023/11/15 01:31:47;;;;;;;24.30;2.45;;;9.50;99.90;;;;;;5046545;28;20040;-81
2023/11/15 01:34:16;;;;;;;21.45;3.72;;;9.50;99.90;;;;;;5069372;28;20105;-83
2023/11/15 01:36:46;;;;;;;21.98;3.30;;;9.50;99.90;;;;;;5071598;28;20101;-83
2023/11/15 01:39:16;;;;;;;23.17;3.85;;;9.50;99.90;;;;;;5066394;28;20048;-82
2023/11/15 01:41:48;;;;;;;16.23;2.70;;;9.50;99.90;;;;;;5068805;28;20561;-82
2023/11/15 01:44:16;;;;;;;15.98;2.63;;;9.50;99.90;;;;;;5067983;28;20495;-83
2023/11/15 01:46:44;;;;;;;17.25;2.47;;;9.50;99.90;;;;;;5070118;28;20049;-84
2023/11/15 01:49:11;;;;;;;10.10;2.50;;;9.40;99.90;;;;;;5034626;28;20338;-82
2023/11/15 01:51:37;;;;;;;10.13;3.40;;;9.50;99.90;;;;;;5049430;28;20115;-84
2023/11/15 01:54:05;;;;;;;12.85;2.60;;;9.50;99.90;;;;;;5051072;28;20045;-83
2023/11/15 01:56:32;;;;;;;13.30;2.25;;;9.50;99.90;;;;;;5034542;28;20454;-83
2023/11/15 01:58:59;;;;;;;33.33;3.85;;;9.50;99.90;;;;;;5050915;28;20060;-85
2023/11/15 02:01:26;;;;;;;9.93;1.88;;;9.50;99.90;;;;;;5068884;28;20045;-82
2023/11/15 02:03:53;;;;;;;20.25;2.40;;;9.50;99.90;;;;;;5068122;28;20813;-85
2023/11/15 02:06:21;;;;;;;17.60;4.63;;;9.60;99.90;;;;;;5069469;28;20052;-81
2023/11/15 02:08:48;;;;;;;17.00;3.78;;;9.50;99.90;;;;;;5063234;28;20090;-81
2023/11/15 02:11:14;;;;;;;19.42;3.35;;;9.50;99.90;;;;;;5056163;28;20048;-79
2023/11/15 02:13:41;;;;;;;18.08;2.90;;;9.50;99.90;;;;;;5070436;28;20041;-83
2023/11/15 02:16:10;;;;;;;19.17;3.55;;;9.50;99.90;;;;;;5069580;28;20106;-81
2023/11/15 02:18:37;;;;;;;12.00;2.28;;;9.50;99.90;;;;;;5068247;28;20056;-81
2023/11/15 02:21:05;;;;;;;9.27;2.28;;;9.50;99.90;;;;;;5069099;28;20052;-81
2023/11/15 02:23:31;;;;;;;14.73;2.20;;;9.50;99.90;;;;;;5068026;28;20045;-83
2023/11/15 02:25:58;;;;;;;15.15;3.42;;;9.50;99.90;;;;;;5067201;28;20052;-81
2023/11/15 02:28:25;;;;;;;13.60;2.50;;;9.50;99.90;;;;;;5050271;28;20747;-80
2023/11/15 02:30:52;;;;;;;8.90;2.10;;;9.50;99.90;;;;;;5062604;28;20113;-80
2023/11/15 02:33:19;;;;;;;21.65;2.95;;;9.40;99.90;;;;;;5048114;28;20105;-82
2023/11/15 02:35:46;;;;;;;11.60;1.60;;;9.50;99.90;;;;;;5064896;28;20499;-84
2023/11/15 02:38:13;;;;;;;10.85;2.38;;;9.40;99.90;;;;;;5067849;28;20040;-82
2023/11/15 02:40:40;;;;;;;13.05;2.33;;;9.40;99.90;;;;;;5066880;28;20259;-81
2023/11/15 02:43:11;;;;;;;16.55;2.05;;;9.40;99.90;;;;;;5069062;28;20044;-82
2023/11/15 02:45:38;;;;;;;13.10;2.30;;;9.40;99.90;;;;;;5049830;28;20052;-81
2023/11/15 02:48:05;;;;;;;25.17;2.53;;;9.40;99.90;;;;;;5067311;28;20040;-82
2023/11/15 02:50:32;;;;;;;12.13;2.00;;;9.40;99.90;;;;;;5068178;28;20396;-83
2023/11/15 02:52:59;;;;;;;16.83;1.90;;;9.50;99.90;;;;;;5049837;28;20096;-82
2023/11/15 02:55:25;;;;;;;17.33;3.47;;;9.40;99.90;;;;;;5068062;28;20049;-82
2023/11/15 02:57:52;;;;;;;14.02;2.22;;;9.40;99.90;;;;;;5068262;28;20048;-83
2023/11/15 03:00:19;;;;;;;13.75;2.00;;;9.40;99.90;;;;;;5066933;28;20056;-83
2023/11/15 03:02:47;;;;;;;13.27;2.20;;;9.40;99.90;;;;;;5076957;28;20432;-83
2023/11/15 03:05:14;;;;;;;16.88;2.63;;;9.30;99.90;;;;;;5068177;28;20052;-82
2023/11/15 03:07:41;;;;;;;12.35;2.33;;;9.40;99.90;;;;;;5068160;28;20404;-82
2023/11/15 03:10:11;;;;;;;18.42;2.22;;;9.40;99.90;;;;;;5067473;28;20536;-82
2023/11/15 03:12:37;;;;;;;5.53;1.58;;;9.40;99.90;;;;;;5067963;28;20059;-81
2023/11/15 03:15:05;;;;;;;10.45;1.52;;;9.40;99.90;;;;;;5064141;28;20053;-81
2023/11/15 03:17:32;;;;;;;14.10;2.78;;;9.40;99.90;;;;;;5067570;28;20060;-81
2023/11/15 03:19:59;;;;;;;11.80;2.40;;;9.40;99.90;;;;;;5067216;28;20448;-80
2023/11/15 03:22:26;;;;;;;8.02;1.63;;;9.40;99.90;;;;;;5070544;28;20048;-81
2023/11/15 03:24:53;;;;;;;6.60;1.70;;;9.40;99.90;;;;;;5069096;28;20040;-82
2023/11/15 03:27:20;;;;;;;10.75;1.95;;;9.50;99.90;;;;;;5069267;28;20134;-82
2023/11/15 03:29:47;;;;;;;12.77;1.77;;;9.40;99.90;;;;;;5069645;28;20595;-83
2023/11/15 03:32:14;;;;;;;6.60;1.52;;;9.40;99.90;;;;;;5068611;28;20044;-81
2023/11/15 03:34:41;;;;;;;12.80;1.85;;;9.40;99.90;;;;;;5067404;28;20044;-85
2023/11/15 03:37:09;;;;;;;11.00;1.63;;;9.40;99.90;;;;;;5067607;28;20495;-82
2023/11/15 03:39:37;;;;;;;13.88;2.17;;;9.40;99.90;;;;;;5067059;28;20059;-82
2023/11/15 03:42:05;;;;;;;9.43;1.40;;;9.40;99.90;;;;;;5069771;28;20051;-81
2023/11/15 03:44:32;;;;;;;7.88;1.55;;;9.30;99.90;;;;;;5070842;28;20094;-83
2023/11/15 03:46:59;;;;;;;14.25;1.83;;;9.30;99.90;;;;;;5067288;28;20049;-83
2023/11/15 03:49:26;;;;;;;15.27;1.88;;;9.40;99.90;;;;;;5068025;28;20049;-81
2023/11/15 03:51:53;;;;;;;13.15;2.22;;;9.30;99.90;;;;;;5068683;28;20055;-81
2023/11/15 03:54:20;;;;;;;9.63;2.03;;;9.40;99.90;;;;;;5068563;28;20040;-82
2023/11/15 03:56:47;;;;;;;8.77;2.05;;;9.40;99.90;;;;;;5050525;28;20052;-82
2023/11/15 03:59:14;;;;;;;8.20;1.35;;;9.30;99.90;;;;;;5061365;28;20052;-80
2023/11/15 04:01:41;;;;;;;13.15;2.72;;;9.30;99.90;;;;;;5067694;28;20045;-81
2023/11/15 04:04:22;;;;;;;10.98;1.48;;;9.30;99.90;;;;;;5051379;28;20055;-83
2023/11/15 04:06:50;;;;;;;14.05;1.77;;;9.30;99.90;;;;;;5060084;28;20047;-84
2023/11/15 04:09:17;;;;;;;9.48;2.67;;;9.30;99.90;;;;;;5067034;28;20052;-83
2023/11/15 04:11:44;;;;;;;11.25;2.50;;;9.30;99.90;;;;;;5062190;28;20045;-82
2023/11/15 04:14:12;;;;;;;10.60;2.25;;;9.30;99.90;;;;;;5075855;28;20094;-80
2023/11/15 04:16:38;;;;;;;15.95;2.67;;;9.30;99.90;;;;;;5078255;28;20056;-82
2023/11/15 04:19:05;;;;;;;10.40;2.10;;;9.40;99.90;;;;;;5080017;28;20040;-82
2023/11/15 04:21:32;;;;;;;10.63;2.30;;;9.30;99.90;;;;;;5072352;28;20063;-82
2023/11/15 04:23:59;;;;;;;16.25;2.17;;;9.30;99.90;;;;;;5071527;28;20056;-82
2023/11/15 04:26:26;;;;;;;13.45;1.77;;;9.30;99.90;;;;;;5066465;28;20044;-81
2023/11/15 04:28:53;;;;;;;8.10;1.73;;;9.30;99.90;;;;;;5071156;28;20087;-81
2023/11/15 04:31:24;;;;;;;12.52;1.98;;;9.30;99.90;;;;;;5053025;28;20055;-82
2023/11/15 04:33:51;;;;;;;10.45;1.40;;;9.30;99.90;;;;;;5069894;28;20479;-81
2023/11/15 04:36:19;;;;;;;11.25;1.67;;;9.20;99.90;;;;;;5070523;28;20495;-81
2023/11/15 04:38:47;;;;;;;9.15;1.45;;;9.20;99.90;;;;;;5070290;28;20036;-82
2023/11/15 04:41:14;;;;;;;13.98;2.47;;;9.30;99.90;;;;;;5048766;28;20053;-82
2023/11/15 04:43:41;;;;;;;8.02;1.40;;;9.20;99.90;;;;;;5069534;28;20050;-80
2023/11/15 04:46:08;;;;;;;11.13;1.85;;;9.20;99.90;;;;;;5070475;28;20048;-81
2023/11/15 04:48:35;;;;;;;14.80;1.90;;;9.20;99.90;;;;;;5051933;28;20037;-83
2023/11/15 04:51:03;;;;;;;18.27;2.40;;;9.20;99.90;;;;;;5069489;28;20086;-83
2023/11/15 04:53:29;;;;;;;18.13;3.17;;;9.20;99.90;;;;;;5068939;28;20098;-83
2023/11/15 04:55:57;;;;;;;9.45;1.33;;;9.20;99.90;;;;;;5070214;28;20411;-81
2023/11/15 04:58:24;;;;;;;8.85;1.75;;;9.10;99.90;;;;;;5069874;28;20061;-84
2023/11/15 05:00:50;;;;;;;10.35;2.47;;;9.10;99.90;;;;;;5062128;28;20071;-82
2023/11/15 05:03:19;;;;;;;11.73;1.80;;;9.10;99.90;;;;;;5068823;28;20041;-82
2023/11/15 05:05:46;;;;;;;11.32;1.55;;;9.10;99.90;;;;;;5069254;28;20515;-82
2023/11/15 05:08:13;;;;;;;7.85;2.08;;;9.10;99.90;;;;;;5069509;28;20407;-81
2023/11/15 05:10:40;;;;;;;10.52;1.83;;;9.10;99.90;;;;;;5035147;28;20060;-81
2023/11/15 05:13:06;;;;;;;13.80;2.10;;;9.00;99.90;;;;;;5069498;28;20113;-81
2023/11/15 05:15:33;;;;;;;9.95;1.92;;;9.00;99.90;;;;;;5066394;28;20052;-83
2023/11/15 05:18:00;;;;;;;9.63;2.05;;;9.00;99.90;;;;;;5048997;28;20048;-82
2023/11/15 05:20:27;;;;;;;14.98;1.63;;;9.00;99.90;;;;;;5069659;28;20143;-80
2023/11/15 05:22:55;;;;;;;7.30;1.67;;;8.90;99.90;;;;;;5071381;28;20052;-80
2023/11/15 05:25:21;;;;;;;16.08;1.48;;;9.00;99.90;;;;;;5069308;28;20063;-81
2023/11/15 05:27:48;;;;;;;9.52;1.90;;;8.90;99.90;;;;;;5049138;28;20651;-83
2023/11/15 05:30:15;;;;;;;13.13;1.98;;;9.00;99.90;;;;;;5068039;28;20033;-82
2023/11/15 05:32:43;;;;;;;14.30;1.75;;;9.00;99.90;;;;;;5034810;28;20123;-82
2023/11/15 05:35:10;;;;;;;8.82;2.20;;;8.90;99.90;;;;;;5034301;28;20398;-81
2023/11/15 05:37:38;;;;;;;8.80;1.75;;;8.80;99.90;;;;;;5051449;28;20045;-81
2023/11/15 05:40:06;;;;;;;10.07;2.08;;;8.90;99.90;;;;;;5066069;28;20040;-82
2023/11/15 05:42:33;;;;;;;16.52;2.50;;;8.90;99.90;;;;;;5068769;28;20113;-80
2023/11/15 05:44:59;;;;;;;9.18;1.80;;;8.90;99.90;;;;;;5068382;28;20487;-82
2023/11/15 05:47:27;;;;;;;11.00;1.88;;;8.90;99.90;;;;;;5068838;28;20040;-81
2023/11/15 05:49:54;;;;;;;8.65;1.58;;;9.00;99.90;;;;;;5068739;28;20053;-82
2023/11/15 05:52:22;;;;;;;11.52;3.53;;;8.90;99.90;;;;;;5068424;28;20044;-84
2023/11/15 05:54:48;;;;;;;8.25;1.67;;;8.90;99.90;;;;;;5065466;28;20040;-83
2023/11/15 05:57:15;;;;;;;12.13;1.70;;;8.90;99.90;;;;;;5068992;28;20053;-82
2023/11/15 05:59:42;;;;;;;10.20;1.73;;;8.90;99.90;;;;;;5050955;28;20056;-80
2023/11/15 06:02:09;;;;;;;13.77;2.92;;;8.90;99.90;;;;;;5068235;28;20087;-83
2023/11/15 06:04:36;;;;;;;5.25;1.10;;;8.90;99.90;;;;;;5064430;28;20102;-80
2023/11/15 06:07:05;;;;;;;13.00;2.38;;;8.90;99.90;;;;;;5062002;28;20135;-80
2023/11/15 06:09:32;;;;;;;11.20;1.73;;;8.80;99.90;;;;;;5068708;28;20138;-82
2023/11/15 06:11:59;;;;;;;15.30;2.83;;;8.80;99.90;;;;;;5068482;28;20482;-81
2023/11/15 06:14:26;;;;;;;6.85;1.48;;;8.90;99.90;;;;;;5067967;28;20479;-81
2023/11/15 06:16:53;;;;;;;15.18;4.20;;;8.90;99.90;;;;;;5068416;28;20457;-83
2023/11/15 06:19:21;;;;;;;16.17;4.05;;;8.90;99.90;;;;;;5065794;28;20045;-83
2023/11/15 06:21:48;;;;;;;12.73;2.03;;;8.90;99.90;;;;;;5069988;28;20056;-82
2023/11/15 06:24:14;;;;;;;10.07;1.63;;;8.90;99.90;;;;;;5087319;28;20040;-83
2023/11/15 06:26:44;;;;;;;11.48;1.90;;;8.80;99.90;;;;;;5073593;28;20127;-82
2023/11/15 06:29:11;;;;;;;16.23;2.40;;;8.90;99.90;;;;;;5068933;28;20106;-81
2023/11/15 06:31:38;;;;;;;16.02;1.77;;;8.90;99.90;;;;;;5048155;28;20139;-84
2023/11/15 06:34:05;;;;;;;9.65;2.03;;;8.80;99.90;;;;;;5066475;28;20044;-81
2023/11/15 06:36:34;;;;;;;11.05;1.58;;;8.80;99.90;;;;;;5068056;28;20064;-82
2023/11/15 06:39:08;;;;;;;18.17;3.20;;;8.80;99.90;;;;;;5068197;28;20044;-82
2023/11/15 06:41:38;;;;;;;9.10;2.17;;;8.90;99.90;;;;;;5060238;28;20075;-82
2023/11/15 06:44:08;;;;;;;14.63;2.38;;;8.90;99.90;;;;;;5067013;28;20495;-82
2023/11/15 06:46:38;;;;;;;15.80;1.55;;;8.90;99.90;;;;;;5045681;28;20044;-83
2023/11/15 06:49:06;;;;;;;10.75;2.25;;;8.70;99.90;;;;;;5067218;28;20135;-83
2023/11/15 06:51:33;;;;;;;9.10;2.00;;;8.90;99.90;;;;;;5048313;28;20041;-81
2023/11/15 06:54:00;;;;;;;17.52;2.55;;;8.90;99.90;;;;;;5067144;28;20056;-81
2023/11/15 06:56:27;;;;;;;16.45;3.80;;;8.90;99.90;;;;;;5070046;28;20044;-81
2023/11/15 06:58:55;;;;;;;18.20;2.50;;;8.90;99.90;;;;;;5069253;28;20594;-82
2023/11/15 07:01:22;;;;;;;11.25;1.95;;;8.90;99.90;;;;;;5067205;28;20068;-81
2023/11/15 07:03:49;;;;;;;13.25;2.08;;;8.90;99.90;;;;;;5067212;28;20060;-83
2023/11/15 07:06:17;;;;;;;13.63;2.47;;;8.90;99.90;;;;;;5068397;28;20048;-80
2023/11/15 07:08:44;;;;;;;7.32;2.15;;;8.90;99.90;;;;;;5058985;28;20515;-80
2023/11/15 07:11:10;;;;;;;12.68;1.85;;;8.90;99.90;;;;;;5039338;28;20052;-77
2023/11/15 07:13:38;;;;;;;11.32;1.70;;;8.90;99.90;;;;;;5066649;28;20048;-74
2023/11/15 07:16:10;;;;;;;16.45;2.05;;;8.90;99.90;;;;;;5047305;28;20048;-74
2023/11/15 07:18:38;;;;;;;12.50;2.27;;;8.90;99.90;;;;;;5052713;28;20049;-76
2023/11/15 07:21:07;;;;;;;12.63;2.25;;;8.90;99.90;;;;;;5048791;28;20052;-74
2023/11/15 07:23:34;;;;;;;17.70;2.33;;;8.90;99.90;;;;;;5060180;28;20048;-74
2023/11/15 07:26:01;;;;;;;13.95;3.03;;;8.90;99.90;;;;;;5060520;28;20448;-77
2023/11/15 07:28:28;;;;;;;10.25;2.10;;;8.90;99.90;;;;;;5065442;28;20052;-74
2023/11/15 07:30:55;;;;;;;7.75;1.75;;;8.90;99.90;;;;;;5045991;28;20076;-73
2023/11/15 07:33:23;;;;;;;12.77;1.77;;;8.90;99.90;;;;;;5065549;28;20078;-73
2023/11/15 07:35:50;;;;;;;21.70;3.05;;;8.90;99.90;;;;;;5064914;28;20048;-71
2023/11/15 07:38:17;;;;;;;8.57;2.42;;;9.00;99.90;;;;;;5062642;28;20045;-74
2023/11/15 07:40:43;;;;;;;9.25;1.77;;;8.90;99.90;;;;;;5039991;28;20488;-74
2023/11/15 07:43:10;;;;;;;15.07;3.58;;;8.90;99.90;;;;;;5062138;28;20061;-74
2023/11/15 07:45:38;;;;;;;12.60;2.30;;;9.00;99.90;;;;;;5064555;28;20663;-76
2023/11/15 07:48:10;;;;;;;12.18;2.20;;;9.00;99.90;;;;;;5042025;28;20081;-74
2023/11/15 07:50:37;;;;;;;8.85;1.90;;;9.00;99.90;;;;;;5049658;28;20094;-75
2023/11/15 07:53:04;;;;;;;17.27;2.92;;;9.00;99.90;;;;;;5066653;28;20059;-77
2023/11/15 07:55:31;;;;;;;12.18;3.55;;;9.00;99.90;;;;;;5042381;28;20041;-76
2023/11/15 07:57:58;;;;;;;16.70;3.28;;;9.00;99.90;;;;;;5061980;28;20056;-77
2023/11/15 08:00:25;;;;;;;20.17;2.03;;;9.00;99.90;;;;;;5033937;28;20384;-77
2023/11/15 08:02:53;;;;;;;12.23;1.80;;;9.00;99.90;;;;;;5067880;28;20048;-77
2023/11/15 08:05:20;;;;;;;16.38;2.33;;;9.00;99.90;;;;;;5068778;28;20048;-77
2023/11/15 08:07:47;;;;;;;9.35;2.45;;;9.00;99.90;;;;;;5062639;28;20048;-76
2023/11/15 08:10:14;;;;;;;8.98;1.83;;;9.10;99.90;;;;;;5059344;28;20041;-76
2023/11/15 08:12:42;;;;;;;17.48;3.45;;;9.10;99.90;;;;;;5066715;28;20071;-76
2023/11/15 08:15:15;;;;;;;11.75;2.63;;;9.10;99.90;;;;;;5064830;28;20040;-77
2023/11/15 08:17:44;;;;;;;12.88;2.20;;;9.10;99.90;;;;;;5067410;28;20048;-77
2023/11/15 08:20:11;;;;;;;17.08;3.97;;;9.10;99.90;;;;;;5060728;28;20040;-76
2023/11/15 08:22:38;;;;;;;19.35;4.35;;;9.10;99.90;;;;;;5062584;28;20147;-77
2023/11/15 08:25:08;;;;;;;11.95;2.17;;;9.10;99.90;;;;;;5071801;28;20056;-76
2023/11/15 08:27:35;;;;;;;15.07;2.20;;;9.20;99.90;;;;;;5058513;28;20491;-76
2023/11/15 08:30:05;;;;;;;20.13;2.63;;;9.20;99.90;;;;;;5047048;28;20092;-75
2023/11/15 08:32:33;;;;;;;15.45;3.03;;;9.20;99.90;;;;;;5067218;28;20095;-71
2023/11/15 08:35:00;;;;;;;16.52;2.88;;;9.30;99.90;;;;;;5066450;28;20044;-75
2023/11/15 08:37:27;;;;;;;19.05;2.28;;;9.30;99.90;;;;;;5061494;28;20056;-75
2023/11/15 08:39:53;;;;;;;12.10;2.58;;;9.30;99.90;;;;;;5056095;28;20483;-75
2023/11/15 08:42:21;;;;;;;16.50;2.10;;;9.30;99.90;;;;;;5066106;28;20056;-76
2023/11/15 08:44:48;;;;;;;10.75;1.92;;;9.30;99.90;;;;;;5058203;28;20052;-76
2023/11/15 08:47:15;;;;;;;13.77;2.03;;;9.30;99.90;;;;;;5062410;28;20049;-76
2023/11/15 08:49:42;;;;;;;13.60;2.25;;;9.40;99.90;;;;;;5066139;28;20040;-77
2023/11/15 08:52:09;;;;;;;13.98;2.30;;;9.40;99.90;;;;;;5064855;28;20052;-76
2023/11/15 08:54:37;;;;;;;24.60;4.45;;;9.40;99.90;;;;;;5041573;28;20045;-76
2023/11/15 08:57:05;;;;;;;20.58;3.60;;;9.50;99.90;;;;;;5066780;28;20044;-76
2023/11/15 08:59:34;;;;;;;15.07;3.70;;;9.50;99.90;;;;;;5065112;28;20056;-76
2023/11/15 09:02:01;;;;;;;19.65;3.70;;;9.50;99.90;;;;;;5057735;28;20045;-76
2023/11/15 09:04:27;;;;;;;10.65;1.88;;;9.50;99.90;;;;;;5068128;28;20411;-75
2023/11/15 09:06:54;;;;;;;13.45;2.92;;;9.60;99.90;;;;;;5051637;28;20075;-75
2023/11/15 09:09:21;;;;;;;12.48;2.17;;;9.60;99.90;;;;;;5064027;28;20047;-76
2023/11/15 09:11:50;;;;;;;19.23;2.80;;;9.60;99.90;;;;;;5044478;28;20051;-76
2023/11/15 09:14:18;;;;;;;16.88;4.45;;;9.60;99.90;;;;;;5067875;28;20048;-74
2023/11/15 09:16:45;;;;;;;17.40;3.05;;;9.60;99.90;;;;;;5066514;28;20056;-74
2023/11/15 09:19:16;;;;;;;14.10;1.90;;;9.70;99.90;;;;;;5066172;28;20055;-73
2023/11/15 09:21:44;;;;;;;11.48;2.10;;;9.70;99.90;;;;;;5060926;28;20118;-73
2023/11/15 09:24:21;;;;;;;17.60;2.53;;;9.70;99.90;;;;;;5048435;28;20055;-74
2023/11/15 09:26:50;;;;;;;11.05;2.03;;;9.70;99.90;;;;;;5050363;28;20059;-73
2023/11/15 09:29:17;;;;;;;20.23;2.35;;;9.70;99.90;;;;;;5067526;28;20052;-73
2023/11/15 09:31:43;;;;;;;13.02;2.58;;;9.80;99.90;;;;;;5068463;28;20053;-74
2023/11/15 09:34:13;;;;;;;12.38;2.65;;;9.80;99.90;;;;;;5068261;28;20094;-75
2023/11/15 09:36:42;;;;;;;11.57;2.38;;;9.80;99.90;;;;;;5050807;28;20072;-74
2023/11/15 09:39:14;;;;;;;14.80;2.10;;;9.80;99.90;;;;;;5068207;28;20084;-75
2023/11/15 09:41:53;;;;;;;14.15;2.28;;;9.90;99.90;;;;;;5051821;28;20102;-73
2023/11/15 09:44:23;;;;;;;19.83;3.03;;;9.90;99.90;;;;;;5060703;28;20458;-75
2023/11/15 09:46:58;;;;;;;9.85;1.90;;;9.90;99.90;;;;;;5040511;28;20079;-75
2023/11/15 09:49:25;;;;;;;17.83;2.53;;;9.90;99.90;;;;;;5067665;28;20040;-75
2023/11/15 09:51:52;;;;;;;11.45;1.90;;;10.00;99.90;;;;;;5068188;28;20458;-74
2023/11/15 09:54:22;;;;;;;15.50;2.10;;;10.00;99.90;;;;;;5067992;28;20185;-75
2023/11/15 09:56:50;;;;;;;9.70;2.22;;;10.00;99.90;;;;;;5067749;28;20575;-74
2023/11/15 09:59:20;;;;;;;11.27;4.85;;;10.10;99.90;;;;;;5067808;28;20295;-74
2023/11/15 10:01:48;;;;;;;12.38;2.35;;;10.10;99.90;;;;;;5051610;28;20052;-74
2023/11/15 10:04:23;;;;;;;8.05;2.35;;;10.00;99.90;;;;;;5067648;28;20055;-74
2023/11/15 10:06:51;;;;;;;12.65;1.88;;;10.00;99.90;;;;;;5067988;28;20049;-74
2023/11/15 10:09:52;;;;;;;12.27;1.75;;;10.10;99.90;;;;;;5067535;28;20483;-74
2023/11/15 10:12:19;;;;;;;13.63;2.17;;;10.10;99.90;;;;;;5014559;28;20052;-74
2023/11/15 10:14:53;;;;;;;11.43;2.42;;;10.20;99.90;;;;;;5065862;28;20048;-74
2023/11/15 10:17:40;;;;;;;15.30;2.45;;;10.20;99.90;;;;;;5047645;28;20071;-74
2023/11/15 10:20:20;;;;;;;8.68;1.80;;;10.30;99.90;;;;;;5048534;28;20052;-74
2023/11/15 10:22:47;;;;;;;10.32;2.47;;;10.30;99.90;;;;;;5050166;28;20117;-74
2023/11/15 10:25:14;;;;;;;11.57;2.00;;;10.40;99.90;;;;;;5048119;28;20056;-74
2023/11/15 10:27:41;;;;;;;20.58;2.70;;;10.40;99.90;;;;;;5064928;28;20053;-74
2023/11/15 10:30:12;;;;;;;12.18;1.88;;;10.40;99.90;;;;;;5049612;28;20064;-74
2023/11/15 10:32:44;;;;;;;10.00;2.08;;;10.50;99.90;;;;;;5067447;28;20052;-74
2023/11/15 10:35:32;;;;;;;17.13;3.28;;;10.50;99.90;;;;;;5067308;28;20047;-74
2023/11/15 10:38:00;;;;;;;15.13;3.15;;;10.50;99.90;;;;;;5039906;28;20076;-74
2023/11/15 10:40:29;;;;;;;4.38;1.60;;;10.50;99.90;;;;;;5048712;28;20040;-74
2023/11/15 10:42:58;;;;;;;18.13;2.90;;;10.50;99.90;;;;;;5051017;28;20052;-74
2023/11/15 10:45:27;;;;;;;9.10;1.90;;;10.50;99.90;;;;;;5045935;28;20503;-72
2023/11/15 10:47:58;;;;;;;16.30;2.55;;;10.50;99.90;;;;;;5048370;28;20109;-74
2023/11/15 10:50:27;;;;;;;14.00;2.75;;;10.50;99.90;;;;;;5049257;28;20522;-73
2023/11/15 10:52:54;;;;;;;14.43;2.13;;;10.60;99.90;;;;;;5066826;28;20087;-74
2023/11/15 10:55:22;;;;;;;12.70;2.03;;;10.60;99.90;;;;;;5048583;28;20090;-73
2023/11/15 10:57:50;;;;;;;6.80;1.60;;;10.70;99.90;;;;;;5048604;28;20041;-73
2023/11/15 11:00:18;;;;;;;8.30;2.15;;;10.70;99.90;;;;;;5049103;28;20044;-75
2023/11/15 11:02:45;;;;;;;10.70;2.30;;;10.70;99.90;;;;;;5046632;28;20070;-73
2023/11/15 11:05:16;;;;;;;8.27;2.00;;;10.80;99.90;;;;;;5065058;28;20043;-75
2023/11/15 11:07:57;;;;;;;10.10;2.35;;;10.90;99.90;;;;;;5049281;28;20098;-73
2023/11/15 11:10:32;;;;;;;15.05;2.40;;;10.90;99.90;;;;;;5033830;28;20110;-74
2023/11/15 11:12:59;;;;;;;9.73;2.20;;;10.90;99.90;;;;;;5047035;28;20049;-74
2023/11/15 11:15:31;;;;;;;12.15;2.00;;;10.90;99.90;;;;;;5067217;28;20051;-74
2023/11/15 11:18:15;;;;;;;9.63;2.30;;;11.00;99.90;;;;;;5059038;28;20057;-73
2023/11/15 11:20:55;;;;;;;;;;;11.00;99.90;;;;;;5051276;28;20041;-74
2023/11/15 11:23:22;;;;;;;12.90;2.33;;;11.10;99.90;;;;;;5068700;28;19927;-73
2023/11/15 11:25:51;;;;;;;10.68;1.98;;;11.10;99.90;;;;;;5048142;28;20044;-74
2023/11/15 11:28:20;;;;;;;12.05;2.95;;;11.20;99.90;;;;;;5052798;28;20045;-73
2023/11/15 11:31:19;;;;;;;12.98;2.55;;;11.10;99.90;;;;;;5071150;28;20151;-74
2023/11/15 11:34:08;;;;;;;17.70;2.20;;;11.10;99.90;;;;;;5069516;28;20098;-73
2023/11/15 11:36:49;;;;;;;9.77;1.77;;;11.10;99.90;;;;;;5065118;28;20064;-74
2023/11/15 11:39:46;;;;;;;8.43;2.00;;;11.10;99.90;;;;;;5068400;28;20093;-72
2023/11/15 11:42:25;;;;;;;12.40;2.38;;;11.10;99.90;;;;;;5070613;28;20119;-73
2023/11/15 11:44:54;;;;;;;12.38;2.25;;;11.10;99.90;;;;;;5050361;28;20084;-74
2023/11/15 11:47:21;;;;;;;12.40;2.15;;;11.20;99.90;;;;;;5070099;28;20044;-75
2023/11/15 11:49:49;;;;;;;13.85;2.72;;;11.20;99.90;;;;;;5053086;28;20075;-73
2023/11/15 11:52:18;;;;;;;10.15;2.00;;;11.20;99.90;;;;;;5052409;28;20041;-73
2023/11/15 11:54:50;;;;;;;12.52;2.38;;;11.20;99.90;;;;;;5052381;28;20488;-74
2023/11/15 11:57:24;;;;;;;12.23;2.17;;;11.20;99.90;;;;;;5047113;28;20064;-74
2023/11/15 12:00:14;;;;;;;8.70;2.45;;;11.30;99.90;;;;;;5068494;28;20084;-74
2023/11/15 12:02:53;;;;;;;9.25;2.20;;;11.20;99.90;;;;;;5069854;28;20044;-73
2023/11/15 12:05:30;;;;;;;5.80;1.80;;;11.10;99.90;;;;;;5070418;28;20040;-73
2023/11/15 12:07:57;;;;;;;8.75;2.15;;;11.10;99.90;;;;;;5052099;28;20048;-74
2023/11/15 12:10:24;;;;;;;15.82;2.95;;;11.10;99.90;;;;;;5069054;28;20059;-74
2023/11/15 12:12:56;;;;;;;16.05;2.05;;;11.10;99.90;;;;;;5069923;28;20044;-74
2023/11/15 12:15:24;;;;;;;6.15;1.85;;;11.10;99.90;;;;;;5069803;28;20475;-74
2023/11/15 12:18:00;;;;;;;19.83;2.25;;;11.20;99.90;;;;;;5074188;28;20571;-74
2023/11/15 12:20:38;;;;;;;7.25;1.67;;;11.40;99.90;;;;;;5068379;28;20045;-75
2023/11/15 12:23:13;;;;;;;8.57;1.83;;;11.50;99.90;;;;;;5068895;28;20147;-74
2023/11/15 12:25:48;;;;;;;6.28;1.30;;;11.50;99.90;;;;;;5066509;28;20472;-73
2023/11/15 12:28:19;;;;;;;9.75;2.00;;;11.60;99.90;;;;;;5067896;28;20052;-74
2023/11/15 12:30:46;;;;;;;9.95;2.75;;;11.50;99.90;;;;;;5069860;28;20045;-74
2023/11/15 12:33:13;;;;;;;11.02;1.58;;;11.50;99.90;;;;;;5069738;28;20048;-75
2023/11/15 12:35:40;;;;;;;8.00;1.70;;;11.70;99.90;;;;;;5068344;28;20553;-74
2023/11/15 12:38:14;;;;;;;8.27;1.92;;;11.70;99.90;;;;;;5051295;28;20068;-74
2023/11/15 12:40:41;;;;;;;11.40;2.13;;;11.70;99.90;;;;;;5067656;28;20063;-73
2023/11/15 12:43:22;;;;;;;14.88;2.08;;;11.70;99.90;;;;;;5051935;28;20067;-74
2023/11/15 12:45:56;;;;;;;7.88;2.25;;;11.70;99.90;;;;;;5052014;28;20515;-74
2023/11/15 12:48:22;;;;;;;13.88;2.08;;;11.70;99.90;;;;;;5069045;28;20499;-74
2023/11/15 12:50:58;;;;;;;10.35;2.45;;;11.70;99.90;;;;;;5066961;28;20052;-74
2023/11/15 12:53:28;;;;;;;7.35;1.95;;;11.70;99.90;;;;;;5040042;28;20049;-75
2023/11/15 12:55:55;;;;;;;9.55;1.98;;;11.70;99.90;;;;;;5069248;28;20483;-75